Time;durP1;ratioP1;P1;durP2;ratioP2;P2;SDS_P1;SDS_P2;PMS_P1;PMS_P2;Temp;Humidity;BMP_temperature;BMP_pressure;BME280_temperature;BME280_humidity;BME280_pressure;Samples;Min_cycle;Max_cycle;Signal;HPM_P1;HPM_P2
2024/01/12 00:00:19;;;;;;;46.38;23.75;;;4.20;99.90;;;;;;4995074;28;20042;-78
2024/01/12 00:02:44;;;;;;;48.38;25.65;;;4.10;99.90;;;;;;4978766;28;20393;-78
2024/01/12 00:05:10;;;;;;;46.63;24.83;;;4.00;99.90;;;;;;4996448;28;20053;-78
2024/01/12 00:07:36;;;;;;;44.83;23.90;;;3.90;99.90;;;;;;4978778;28;20469;-78
2024/01/12 00:10:01;;;;;;;45.35;23.98;;;3.90;99.90;;;;;;4996628;28;20457;-78
2024/01/12 00:12:27;;;;;;;49.10;25.85;;;3.80;99.90;;;;;;4978905;28;20491;-78
2024/01/12 00:14:52;;;;;;;44.63;24.13;;;3.70;99.90;;;;;;4995754;28;20053;-78
2024/01/12 00:17:18;;;;;;;46.55;22.80;;;3.60;99.90;;;;;;4994767;28;20476;-78
2024/01/12 00:19:46;;;;;;;47.75;23.95;;;3.60;99.90;;;;;;4995630;28;20030;-77
2024/01/12 00:22:11;;;;;;;46.22;23.63;;;3.60;99.90;;;;;;4995520;28;20137;-78
2024/01/12 00:24:37;;;;;;;46.30;23.75;;;3.70;99.90;;;;;;4994556;28;20456;-77
2024/01/12 00:27:03;;;;;;;40.58;21.05;;;3.80;99.90;;;;;;4994353;28;20508;-77
2024/01/12 00:29:29;;;;;;;40.78;21.95;;;3.80;99.90;;;;;;4996042;28;20039;-77
2024/01/12 00:31:55;;;;;;;43.33;21.27;;;3.90;99.90;;;;;;4995749;28;20038;-78
2024/01/12 00:34:21;;;;;;;36.05;20.35;;;4.00;99.90;;;;;;4996375;28;20392;-77
2024/01/12 00:36:48;;;;;;;36.00;21.02;;;4.10;99.90;;;;;;4994795;28;20030;-77
2024/01/12 00:39:15;;;;;;;41.28;21.48;;;4.10;99.90;;;;;;4995181;28;20457;-77
2024/01/12 00:41:41;;;;;;;44.13;23.60;;;4.20;99.90;;;;;;4996254;28;20034;-76
2024/01/12 00:44:07;;;;;;;43.17;22.67;;;4.20;99.90;;;;;;4994982;28;20038;-76
2024/01/12 00:46:33;;;;;;;46.83;23.35;;;4.00;99.90;;;;;;4996395;28;20026;-77
2024/01/12 00:48:59;;;;;;;42.15;20.60;;;3.90;99.90;;;;;;4995452;28;20088;-77
2024/01/12 00:51:25;;;;;;;39.13;20.10;;;4.00;99.90;;;;;;4995297;28;20113;-76
2024/01/12 00:53:50;;;;;;;39.05;19.83;;;4.10;99.90;;;;;;4995501;28;20045;-76
2024/01/12 00:56:16;;;;;;;40.83;19.98;;;4.10;99.90;;;;;;4994931;28;20030;-76
2024/01/12 00:58:42;;;;;;;33.00;18.23;;;4.10;99.90;;;;;;4993889;28;20034;-76
2024/01/12 01:01:09;;;;;;;38.72;19.00;;;4.00;99.90;;;;;;4995136;28;20089;-76
2024/01/12 01:03:36;;;;;;;37.22;19.00;;;4.00;99.90;;;;;;4995020;28;20034;-76
2024/01/12 01:06:02;;;;;;;36.10;18.80;;;4.00;99.90;;;;;;4994959;28;20479;-76
2024/01/12 01:08:27;;;;;;;36.42;16.92;;;4.00;99.90;;;;;;4994703;28;20113;-76
2024/01/12 01:10:53;;;;;;;31.17;15.60;;;4.00;99.90;;;;;;4993671;28;20100;-76
2024/01/12 01:13:19;;;;;;;31.33;14.73;;;4.00;99.90;;;;;;4977502;28;20428;-76
2024/01/12 01:15:45;;;;;;;27.38;13.02;;;4.10;99.90;;;;;;4994907;28;20030;-76
2024/01/12 01:18:10;;;;;;;36.58;13.38;;;4.10;99.90;;;;;;4993377;28;20615;-76
2024/01/12 01:20:37;;;;;;;28.95;11.88;;;4.20;99.90;;;;;;4994745;28;20037;-76
2024/01/12 01:23:03;;;;;;;27.70;11.35;;;4.30;99.90;;;;;;4994762;28;20054;-76
2024/01/12 01:25:28;;;;;;;29.80;11.48;;;4.30;99.90;;;;;;4993112;28;20054;-76
2024/01/12 01:27:54;;;;;;;31.52;11.80;;;4.40;99.90;;;;;;4993548;28;20035;-76
2024/01/12 01:30:20;;;;;;;23.15;11.45;;;4.40;99.90;;;;;;4977399;28;20464;-76
2024/01/12 01:32:48;;;;;;;30.05;11.85;;;4.50;99.90;;;;;;4994892;28;20026;-75
2024/01/12 01:35:15;;;;;;;27.45;12.13;;;4.50;99.90;;;;;;4994423;28;20043;-75
2024/01/12 01:37:40;;;;;;;28.35;12.82;;;4.60;99.90;;;;;;4993343;28;20031;-75
2024/01/12 01:40:07;;;;;;;25.27;11.57;;;4.50;99.90;;;;;;4994222;28;20058;-76
2024/01/12 01:42:33;;;;;;;26.25;10.98;;;4.50;99.90;;;;;;4993343;28;20081;-76
2024/01/12 01:45:00;;;;;;;29.95;11.38;;;4.50;99.90;;;;;;4993183;28;20033;-76
2024/01/12 01:47:26;;;;;;;26.67;11.57;;;4.50;99.90;;;;;;4994402;28;20046;-75
2024/01/12 01:49:52;;;;;;;30.88;10.80;;;4.50;99.90;;;;;;4993897;28;20042;-75
2024/01/12 01:52:25;;;;;;;25.85;10.93;;;4.60;99.90;;;;;;4994418;28;20122;-75
2024/01/12 01:54:52;;;;;;;29.65;12.13;;;4.60;99.90;;;;;;4994575;28;20034;-75
2024/01/12 01:57:19;;;;;;;28.70;10.52;;;4.60;99.90;;;;;;4994480;28;20042;-75
2024/01/12 01:59:45;;;;;;;28.13;11.13;;;4.70;99.90;;;;;;4993980;28;20530;-75
2024/01/12 02:02:11;;;;;;;33.35;11.50;;;4.70;99.90;;;;;;4976800;28;20106;-75
2024/01/12 02:04:37;;;;;;;27.88;11.60;;;4.60;99.90;;;;;;4994269;28;20038;-76
2024/01/12 02:07:04;;;;;;;29.92;11.55;;;4.60;99.90;;;;;;4992873;28;20035;-75
2024/01/12 02:09:31;;;;;;;31.27;11.75;;;4.60;99.90;;;;;;4994835;28;20037;-77
2024/01/12 02:11:57;;;;;;;25.98;10.25;;;4.70;99.90;;;;;;4994515;28;20034;-76
2024/01/12 02:14:23;;;;;;;29.88;11.18;;;4.70;99.90;;;;;;4994487;28;20052;-76
2024/01/12 02:16:49;;;;;;;32.15;10.25;;;4.70;99.90;;;;;;4994634;28;20470;-76
2024/01/12 02:19:14;;;;;;;30.02;10.52;;;4.70;99.90;;;;;;4993564;28;20369;-76
2024/01/12 02:21:40;;;;;;;27.23;10.18;;;4.70;99.90;;;;;;4992638;28;20082;-76
2024/01/12 02:24:05;;;;;;;27.95;10.95;;;4.70;99.90;;;;;;4994016;28;20038;-76
2024/01/12 02:26:31;;;;;;;33.55;11.20;;;4.80;99.90;;;;;;4993883;28;20465;-76
2024/01/12 02:28:58;;;;;;;28.15;10.77;;;4.80;99.90;;;;;;4993964;28;20042;-76
2024/01/12 02:31:25;;;;;;;26.45;9.98;;;4.80;99.90;;;;;;4993907;28;20330;-76
2024/01/12 02:33:51;;;;;;;31.48;11.52;;;4.80;99.90;;;;;;4993119;28;20042;-76
2024/01/12 02:36:17;;;;;;;28.35;10.63;;;4.80;99.90;;;;;;4995491;28;20030;-76
2024/01/12 02:38:49;;;;;;;28.17;10.57;;;4.80;99.90;;;;;;4997822;28;20034;-76
2024/01/12 02:41:14;;;;;;;30.63;10.65;;;4.80;99.90;;;;;;4998370;28;20022;-76
2024/01/12 02:43:40;;;;;;;23.27;9.40;;;4.80;99.90;;;;;;4998740;28;20038;-77
2024/01/12 02:46:06;;;;;;;25.73;9.20;;;4.80;99.90;;;;;;4997355;28;20043;-76
2024/01/12 02:48:31;;;;;;;26.70;8.70;;;4.90;99.90;;;;;;4997866;28;20066;-76
2024/01/12 02:50:57;;;;;;;23.73;9.85;;;4.90;99.90;;;;;;4996173;28;20109;-76
2024/01/12 02:53:23;;;;;;;26.85;9.45;;;4.90;99.90;;;;;;4979939;28;20097;-76
2024/01/12 02:55:48;;;;;;;25.83;10.48;;;4.90;99.90;;;;;;4996663;28;20038;-76
2024/01/12 02:58:14;;;;;;;27.40;9.55;;;4.90;99.90;;;;;;4996607;28;20444;-76
2024/01/12 03:00:39;;;;;;;26.67;9.95;;;4.90;99.90;;;;;;4997754;28;20031;-76
2024/01/12 03:03:05;;;;;;;24.05;8.77;;;4.90;99.90;;;;;;4997769;28;20061;-76
2024/01/12 03:05:31;;;;;;;24.65;8.45;;;4.90;99.90;;;;;;4997741;28;20120;-77
2024/01/12 03:07:57;;;;;;;26.42;8.98;;;4.90;99.90;;;;;;4996588;28;20081;-77
2024/01/12 03:10:22;;;;;;;22.00;8.85;;;4.90;99.90;;;;;;4996036;28;20034;-77
2024/01/12 03:12:48;;;;;;;23.88;8.52;;;4.90;99.90;;;;;;4979872;28;20081;-77
2024/01/12 03:15:14;;;;;;;27.58;8.18;;;4.90;99.90;;;;;;4996808;28;20049;-77
2024/01/12 03:17:40;;;;;;;22.35;8.27;;;4.90;99.90;;;;;;4997125;28;20041;-77
2024/01/12 03:20:07;;;;;;;22.67;7.05;;;4.90;99.90;;;;;;4996805;28;20031;-76
2024/01/12 03:22:33;;;;;;;25.98;6.88;;;4.90;99.90;;;;;;4995477;28;20062;-76
2024/01/12 03:24:58;;;;;;;27.35;8.90;;;4.90;99.90;;;;;;4996898;28;20048;-76
2024/01/12 03:27:24;;;;;;;32.97;8.40;;;4.80;99.90;;;;;;4995737;28;20037;-76
2024/01/12 03:29:50;;;;;;;20.75;7.70;;;4.80;99.90;;;;;;4995592;28;20396;-76
2024/01/12 03:32:16;;;;;;;26.65;8.45;;;4.80;99.90;;;;;;4996763;28;20041;-77
2024/01/12 03:34:41;;;;;;;21.23;7.13;;;4.70;99.90;;;;;;4996681;28;20042;-77
2024/01/12 03:37:07;;;;;;;18.58;7.18;;;4.80;99.90;;;;;;4995162;28;20031;-77
2024/01/12 03:39:32;;;;;;;25.05;7.03;;;4.90;99.90;;;;;;4997227;28;20453;-77
2024/01/12 03:41:58;;;;;;;24.33;7.40;;;4.90;99.90;;;;;;4995931;28;20416;-76
2024/01/12 03:44:23;;;;;;;26.65;7.85;;;4.90;99.90;;;;;;4996647;28;20492;-77
2024/01/12 03:46:49;;;;;;;27.95;6.85;;;4.90;99.90;;;;;;4996515;28;20026;-76
2024/01/12 03:49:15;;;;;;;22.25;7.28;;;4.90;99.90;;;;;;4996111;28;20080;-76
2024/01/12 03:51:43;;;;;;;25.73;7.57;;;4.90;99.90;;;;;;4996696;28;20477;-76
2024/01/12 03:54:10;;;;;;;25.70;6.50;;;4.90;99.90;;;;;;4996633;28;20041;-76
2024/01/12 03:56:35;;;;;;;23.25;7.45;;;4.90;99.90;;;;;;4995784;28;20031;-76
2024/01/12 03:59:01;;;;;;;20.45;6.63;;;5.00;99.90;;;;;;4995171;28;20121;-76
2024/01/12 04:01:27;;;;;;;23.13;7.78;;;5.00;99.90;;;;;;4996515;28;20031;-76
2024/01/12 04:03:52;;;;;;;27.00;7.53;;;4.90;99.90;;;;;;4995953;28;20039;-77
2024/01/12 04:06:18;;;;;;;30.70;8.10;;;4.80;99.90;;;;;;4996099;28;20515;-77
2024/01/12 04:08:44;;;;;;;24.17;7.18;;;4.80;99.90;;;;;;4996153;28;20038;-76
2024/01/12 04:11:21;;;;;;;29.70;7.70;;;4.80;99.90;;;;;;4995869;28;20037;-76
2024/01/12 04:13:46;;;;;;;25.25;7.35;;;4.80;99.90;;;;;;4996272;28;20035;-76
2024/01/12 04:16:12;;;;;;;26.60;6.90;;;4.80;99.90;;;;;;4996042;28;20495;-77
2024/01/12 04:18:39;;;;;;;22.08;7.00;;;4.90;99.90;;;;;;4995676;28;20035;-77
2024/01/12 04:21:05;;;;;;;25.25;6.70;;;4.90;99.90;;;;;;4995655;28;20035;-76
2024/01/12 04:23:30;;;;;;;25.67;6.88;;;4.90;99.90;;;;;;4996113;28;20035;-77
2024/01/12 04:25:56;;;;;;;22.90;6.40;;;4.90;99.90;;;;;;4994871;28;20104;-76
2024/01/12 04:28:21;;;;;;;24.42;7.00;;;5.00;99.90;;;;;;4994528;28;20026;-76
2024/01/12 04:30:47;;;;;;;26.02;7.10;;;5.00;99.90;;;;;;4995406;28;20031;-77
2024/01/12 04:33:13;;;;;;;26.83;6.55;;;5.00;99.90;;;;;;4995624;28;20022;-77
2024/01/12 04:35:38;;;;;;;21.23;6.50;;;5.00;99.90;;;;;;4995322;28;20460;-76
2024/01/12 04:38:04;;;;;;;23.40;6.22;;;4.90;99.90;;;;;;4994996;28;20365;-76
2024/01/12 04:40:29;;;;;;;20.52;6.93;;;4.90;99.90;;;;;;4995976;28;20038;-77
2024/01/12 04:42:55;;;;;;;23.40;6.30;;;4.90;99.90;;;;;;4995492;28;20117;-77
2024/01/12 04:45:21;;;;;;;19.33;6.25;;;4.90;99.90;;;;;;4995456;28;20495;-77
2024/01/12 04:47:46;;;;;;;21.85;5.55;;;4.90;99.90;;;;;;4995418;28;20032;-76
2024/01/12 04:50:12;;;;;;;22.90;6.35;;;4.90;99.90;;;;;;4995077;28;20037;-76
2024/01/12 04:52:37;;;;;;;22.90;6.07;;;5.00;99.90;;;;;;4994936;28;20396;-77
2024/01/12 04:55:03;;;;;;;21.23;6.18;;;5.00;99.90;;;;;;4995452;28;20038;-76
2024/01/12 04:57:29;;;;;;;18.27;6.18;;;5.00;99.90;;;;;;4995186;28;20026;-77
2024/01/12 04:59:54;;;;;;;28.00;6.38;;;5.00;99.90;;;;;;4994265;28;20035;-77
2024/01/12 05:02:20;;;;;;;24.45;6.28;;;5.00;99.90;;;;;;4994925;28;20037;-76
2024/01/12 05:04:46;;;;;;;23.92;6.05;;;5.00;99.90;;;;;;4994848;28;20038;-76
2024/01/12 05:07:12;;;;;;;19.92;6.07;;;5.00;99.90;;;;;;4994773;28;20070;-77
2024/01/12 05:09:37;;;;;;;23.30;6.60;;;5.00;99.90;;;;;;4995311;28;20031;-77
2024/01/12 05:12:05;;;;;;;22.23;6.13;;;5.00;99.90;;;;;;4993811;28;20027;-77
2024/01/12 05:14:34;;;;;;;22.35;6.47;;;4.90;99.90;;;;;;4995378;28;20047;-76
2024/01/12 05:17:00;;;;;;;20.67;5.93;;;4.90;99.90;;;;;;4994900;28;20030;-76
2024/01/12 05:19:25;;;;;;;20.42;6.00;;;4.90;99.90;;;;;;4995198;28;20027;-76
2024/01/12 05:21:51;;;;;;;26.33;6.28;;;4.90;99.90;;;;;;4994870;28;20089;-76
2024/01/12 05:24:17;;;;;;;18.48;6.18;;;4.80;99.90;;;;;;4994375;28;20038;-76
2024/01/12 05:26:44;;;;;;;20.17;5.22;;;4.90;99.90;;;;;;4994577;28;20085;-76
2024/01/12 05:29:11;;;;;;;21.15;5.57;;;4.90;99.90;;;;;;4994570;28;20030;-77
2024/01/12 05:31:37;;;;;;;15.93;5.53;;;4.90;99.90;;;;;;4994491;28;20034;-77
2024/01/12 05:34:03;;;;;;;22.17;6.60;;;5.00;99.90;;;;;;4993181;28;20109;-76
2024/01/12 05:36:28;;;;;;;17.52;5.75;;;4.90;99.90;;;;;;4994087;28;20110;-77
2024/01/12 05:38:54;;;;;;;23.15;6.00;;;4.80;99.90;;;;;;4993133;28;20038;-77
2024/01/12 05:41:20;;;;;;;26.80;5.50;;;4.80;99.90;;;;;;4994415;28;20033;-76
2024/01/12 05:43:46;;;;;;;19.33;5.20;;;4.90;99.90;;;;;;4994259;28;20042;-76
2024/01/12 05:46:11;;;;;;;21.83;5.05;;;4.90;99.90;;;;;;4993340;28;20358;-76
2024/01/12 05:48:37;;;;;;;25.75;5.45;;;5.00;99.90;;;;;;4994050;28;20023;-76
2024/01/12 05:51:03;;;;;;;20.17;6.22;;;5.00;99.90;;;;;;4994172;28;20074;-76
2024/01/12 05:53:28;;;;;;;19.83;5.22;;;5.00;99.90;;;;;;4995232;28;20045;-77
2024/01/12 05:55:54;;;;;;;16.95;5.38;;;5.00;99.90;;;;;;4992913;28;20377;-76
2024/01/12 05:58:20;;;;;;;20.48;5.88;;;5.00;99.90;;;;;;4994111;28;20043;-76
2024/01/12 06:00:47;;;;;;;16.73;4.50;;;5.10;99.90;;;;;;4976749;28;20058;-77
2024/01/12 06:03:13;;;;;;;21.52;5.90;;;5.00;99.90;;;;;;4994370;28;20114;-76
2024/01/12 06:05:44;;;;;;;17.48;5.00;;;5.00;99.90;;;;;;4992963;28;20077;-77
2024/01/12 06:08:09;;;;;;;24.45;5.78;;;4.90;99.90;;;;;;4994574;28;20088;-76
2024/01/12 06:10:35;;;;;;;26.45;6.53;;;4.80;99.90;;;;;;4994340;28;20026;-77
2024/01/12 06:13:00;;;;;;;23.05;6.47;;;4.80;99.90;;;;;;4996943;28;20041;-76
2024/01/12 06:15:26;;;;;;;22.85;6.93;;;4.80;99.90;;;;;;4998140;28;20125;-76
2024/01/12 06:17:52;;;;;;;20.60;5.88;;;4.80;99.90;;;;;;4996812;28;20388;-77
2024/01/12 06:20:17;;;;;;;17.38;5.32;;;4.80;99.90;;;;;;4997734;28;20043;-77
2024/01/12 06:22:43;;;;;;;14.35;5.30;;;4.80;99.90;;;;;;4998094;28;20061;-77
2024/01/12 06:25:09;;;;;;;22.58;5.80;;;4.90;99.90;;;;;;4998509;28;20493;-76
2024/01/12 06:27:34;;;;;;;26.02;5.72;;;4.90;99.90;;;;;;4997616;28;20027;-78
2024/01/12 06:30:00;;;;;;;24.17;6.05;;;4.90;99.90;;;;;;4998381;28;20030;-76
2024/01/12 06:32:25;;;;;;;19.88;5.18;;;4.80;99.90;;;;;;4997597;28;20038;-77
2024/01/12 06:34:51;;;;;;;23.42;6.05;;;4.80;99.90;;;;;;4998364;28;20034;-77
2024/01/12 06:37:16;;;;;;;19.88;5.18;;;4.80;99.90;;;;;;4996595;28;20034;-72
2024/01/12 06:39:42;;;;;;;20.27;5.25;;;4.80;99.90;;;;;;4997602;28;20421;-71
2024/01/12 06:42:08;;;;;;;18.23;5.15;;;4.90;99.90;;;;;;4997894;28;20034;-72
2024/01/12 06:44:39;;;;;;;16.13;3.97;;;4.80;99.90;;;;;;4999114;28;20424;-72
2024/01/12 06:47:06;;;;;;;13.85;3.90;;;5.00;99.90;;;;;;4997473;28;20034;-72
2024/01/12 06:49:32;;;;;;;14.43;4.28;;;5.10;99.90;;;;;;4997627;28;20037;-71
2024/01/12 06:51:57;;;;;;;18.45;5.55;;;5.30;99.90;;;;;;4997268;28;20026;-72
2024/01/12 06:54:23;;;;;;;17.33;4.53;;;5.30;99.90;;;;;;4997529;28;20478;-70
2024/01/12 06:56:52;;;;;;;19.20;5.35;;;5.30;99.90;;;;;;4997400;28;20080;-71
2024/01/12 06:59:18;;;;;;;17.45;4.15;;;5.50;99.90;;;;;;4997855;28;20109;-72
2024/01/12 07:01:44;;;;;;;13.15;3.88;;;5.60;99.90;;;;;;4997420;28;20026;-72
2024/01/12 07:04:10;;;;;;;13.45;3.95;;;5.70;99.90;;;;;;4997621;28;20366;-76
2024/01/12 07:06:35;;;;;;;20.73;5.15;;;5.90;99.90;;;;;;4998824;28;20527;-78
2024/01/12 07:09:01;;;;;;;17.08;4.88;;;6.00;99.90;;;;;;4999901;28;20031;-76
2024/01/12 07:11:26;;;;;;;15.68;5.22;;;6.10;99.90;;;;;;4997502;28;20046;-76
2024/01/12 07:13:52;;;;;;;18.52;3.70;;;6.10;99.90;;;;;;4996811;28;20073;-76
2024/01/12 07:16:20;;;;;;;20.52;5.18;;;6.10;99.90;;;;;;4996939;28;20472;-76
2024/01/12 07:18:45;;;;;;;18.95;4.72;;;6.10;99.90;;;;;;4996835;28;20042;-76
2024/01/12 07:21:11;;;;;;;17.52;4.43;;;6.20;99.90;;;;;;4997160;28;20461;-76
2024/01/12 07:23:37;;;;;;;10.38;3.70;;;6.20;99.90;;;;;;4995832;28;20058;-76
2024/01/12 07:26:02;;;;;;;15.27;4.72;;;6.30;99.90;;;;;;4996725;28;20034;-75
2024/01/12 07:28:28;;;;;;;16.48;4.10;;;6.30;99.90;;;;;;4997326;28;20048;-77
2024/01/12 07:30:54;;;;;;;16.02;5.32;;;6.30;99.90;;;;;;4998581;28;20026;-76
2024/01/12 07:33:21;;;;;;;16.98;5.50;;;6.30;99.90;;;;;;4995746;28;20030;-77
2024/01/12 07:35:47;;;;;;;17.77;5.57;;;6.40;99.90;;;;;;4996706;28;20042;-74
2024/01/12 07:38:12;;;;;;;15.60;5.18;;;6.30;99.90;;;;;;4996812;28;20033;-74
2024/01/12 07:40:38;;;;;;;20.92;5.63;;;6.30;99.90;;;;;;4996990;28;20453;-74
2024/01/12 07:43:04;;;;;;;16.13;5.43;;;6.30;99.90;;;;;;4996198;28;20035;-74
2024/01/12 07:45:30;;;;;;;15.63;5.50;;;6.30;99.90;;;;;;4996534;28;20393;-73
2024/01/12 07:47:55;;;;;;;16.33;5.40;;;6.40;99.90;;;;;;4995073;28;20169;-72
2024/01/12 07:50:21;;;;;;;18.65;6.20;;;6.40;99.90;;;;;;4995944;28;20030;-72
2024/01/12 07:52:47;;;;;;;21.38;5.55;;;6.30;99.90;;;;;;4996377;28;20042;-72
2024/01/12 07:55:12;;;;;;;19.25;5.70;;;6.30;99.90;;;;;;4995468;28;20069;-72
2024/01/12 07:57:38;;;;;;;17.15;5.82;;;6.30;99.90;;;;;;4996849;28;20504;-73
2024/01/12 08:00:05;;;;;;;12.45;5.05;;;6.30;99.90;;;;;;4996288;28;20113;-72
2024/01/12 08:02:31;;;;;;;15.13;5.15;;;6.30;99.90;;;;;;4996363;28;20093;-72
2024/01/12 08:04:56;;;;;;;15.70;4.72;;;6.40;99.90;;;;;;4996175;28;20461;-72
2024/01/12 08:07:22;;;;;;;20.27;5.20;;;6.40;99.90;;;;;;4994985;28;20465;-72
2024/01/12 08:09:47;;;;;;;13.88;4.25;;;6.40;99.90;;;;;;4995596;28;20084;-72
2024/01/12 08:12:13;;;;;;;15.38;4.45;;;6.40;99.90;;;;;;4996321;28;20421;-72
2024/01/12 08:14:38;;;;;;;19.38;4.68;;;6.40;99.90;;;;;;4996269;28;20042;-72
2024/01/12 08:17:04;;;;;;;20.13;5.85;;;6.50;99.90;;;;;;4994871;28;20035;-72
2024/01/12 08:19:30;;;;;;;16.00;4.13;;;6.50;99.90;;;;;;4996194;28;20420;-73
2024/01/12 08:21:56;;;;;;;13.98;4.75;;;6.40;99.90;;;;;;4996050;28;20073;-72
2024/01/12 08:24:21;;;;;;;15.13;4.93;;;6.40;99.90;;;;;;4995978;28;20089;-71
2024/01/12 08:26:47;;;;;;;16.92;4.63;;;6.30;99.90;;;;;;4996178;28;20473;-71
2024/01/12 08:29:13;;;;;;;15.40;5.40;;;6.30;99.90;;;;;;4994862;28;20042;-70
2024/01/12 08:31:38;;;;;;;18.10;5.28;;;6.20;99.90;;;;;;4995535;28;20105;-72
2024/01/12 08:34:04;;;;;;;16.23;5.35;;;6.20;99.90;;;;;;4995022;28;20439;-71
2024/01/12 08:36:30;;;;;;;16.25;5.57;;;6.20;99.90;;;;;;4995273;28;20030;-72
2024/01/12 08:38:55;;;;;;;16.08;4.95;;;6.20;99.90;;;;;;4994155;28;20022;-71
2024/01/12 08:41:21;;;;;;;13.15;4.53;;;6.20;99.90;;;;;;4995088;28;20114;-71
2024/01/12 08:43:47;;;;;;;21.23;6.38;;;6.20;99.90;;;;;;4995328;28;20392;-71
2024/01/12 08:46:12;;;;;;;17.48;5.20;;;6.20;99.90;;;;;;4995508;28;20084;-71
2024/01/12 08:48:38;;;;;;;20.95;6.65;;;6.20;99.90;;;;;;4995460;28;20070;-71
2024/01/12 08:51:04;;;;;;;18.00;4.82;;;6.20;99.90;;;;;;4994966;28;20037;-71
2024/01/12 08:53:29;;;;;;;18.27;6.43;;;6.30;99.90;;;;;;4994701;28;20487;-71
2024/01/12 08:55:55;;;;;;;20.77;6.38;;;6.20;99.90;;;;;;4995619;28;20026;-71
2024/01/12 08:58:21;;;;;;;18.02;6.28;;;6.30;99.90;;;;;;4995052;28;20101;-71
2024/01/12 09:00:46;;;;;;;17.38;5.40;;;6.20;99.90;;;;;;4995260;28;20117;-71
2024/01/12 09:03:12;;;;;;;15.95;4.93;;;6.30;99.90;;;;;;4995048;28;20461;-71
2024/01/12 09:05:38;;;;;;;21.52;5.28;;;6.30;99.90;;;;;;4995435;28;20444;-71
2024/01/12 09:08:03;;;;;;;18.08;5.47;;;6.40;99.90;;;;;;4994724;28;20092;-71
2024/01/12 09:10:29;;;;;;;13.93;4.75;;;6.40;99.90;;;;;;4994885;28;20030;-71
2024/01/12 09:12:55;;;;;;;13.50;4.60;;;6.40;99.90;;;;;;4995361;28;20100;-71
2024/01/12 09:15:20;;;;;;;15.75;5.47;;;6.40;99.90;;;;;;4994693;28;20125;-71
2024/01/12 09:17:46;;;;;;;23.13;4.78;;;6.40;99.90;;;;;;4993905;28;20108;-72
2024/01/12 09:20:12;;;;;;;20.17;5.25;;;6.40;99.90;;;;;;4994667;28;20033;-77
2024/01/12 09:22:37;;;;;;;16.33;5.32;;;6.50;99.90;;;;;;4994393;28;20065;-73
2024/01/12 09:25:03;;;;;;;17.67;4.50;;;6.40;99.90;;;;;;4994677;28;20043;-72
2024/01/12 09:27:30;;;;;;;17.55;4.95;;;6.30;99.90;;;;;;4994462;28;20469;-74
2024/01/12 09:29:55;;;;;;;20.77;5.72;;;6.30;99.90;;;;;;4994454;28;20460;-71
2024/01/12 09:32:22;;;;;;;15.73;4.97;;;6.30;99.90;;;;;;4994521;28;20070;-71
2024/01/12 09:34:48;;;;;;;17.83;5.18;;;6.20;99.90;;;;;;4995148;28;20133;-71
2024/01/12 09:37:14;;;;;;;17.13;4.82;;;6.30;99.90;;;;;;4994347;28;20105;-71
2024/01/12 09:39:39;;;;;;;20.23;4.35;;;6.20;99.90;;;;;;4994403;28;20571;-72
2024/01/12 09:42:08;;;;;;;13.85;5.10;;;6.10;99.90;;;;;;4994264;28;20030;-72
2024/01/12 09:44:37;;;;;;;16.92;5.43;;;6.10;99.90;;;;;;4994115;28;20138;-72
2024/01/12 09:47:03;;;;;;;17.30;4.82;;;6.10;99.90;;;;;;4993779;28;20053;-71
2024/01/12 09:49:31;;;;;;;12.70;4.72;;;6.10;99.90;;;;;;4995039;28;20031;-70
2024/01/12 09:51:58;;;;;;;18.58;5.00;;;6.10;99.90;;;;;;4993918;28;20030;-70
2024/01/12 09:54:24;;;;;;;11.75;4.30;;;6.20;99.90;;;;;;4993936;28;20061;-71
2024/01/12 09:56:51;;;;;;;18.40;4.72;;;6.20;99.90;;;;;;4994067;28;20031;-72
2024/01/12 09:59:20;;;;;;;18.48;5.18;;;6.20;99.90;;;;;;4994130;28;20465;-71
2024/01/12 10:01:45;;;;;;;19.50;4.25;;;6.30;99.90;;;;;;4994336;28;20030;-71
2024/01/12 10:04:11;;;;;;;13.50;5.15;;;6.30;99.90;;;;;;4976458;28;20377;-72
2024/01/12 10:06:37;;;;;;;15.57;4.63;;;6.40;99.90;;;;;;4994138;28;20337;-72
2024/01/12 10:09:03;;;;;;;17.25;5.72;;;6.30;99.90;;;;;;4992312;28;20030;-72
2024/01/12 10:11:29;;;;;;;22.20;4.88;;;6.40;99.90;;;;;;4993447;28;20033;-71
2024/01/12 10:13:54;;;;;;;18.67;5.22;;;6.40;99.90;;;;;;4993662;28;20039;-72
2024/01/12 10:16:28;;;;;;;14.23;4.03;;;6.30;99.90;;;;;;4992759;28;20453;-71
2024/01/12 10:18:58;;;;;;;18.98;5.57;;;6.30;99.90;;;;;;4994573;28;20552;-76
2024/01/12 10:21:25;;;;;;;15.57;4.72;;;6.40;99.90;;;;;;4994891;28;20061;-76
2024/01/12 10:24:06;;;;;;;20.63;4.38;;;6.40;99.90;;;;;;4994813;28;20046;-76
2024/01/12 10:26:31;;;;;;;12.98;3.95;;;6.50;99.90;;;;;;4994471;28;20053;-76
2024/01/12 10:29:03;;;;;;;15.27;4.50;;;6.50;99.90;;;;;;4994684;28;20469;-76
2024/01/12 10:31:30;;;;;;;15.23;4.45;;;6.50;99.90;;;;;;4995036;28;20189;-76
2024/01/12 10:34:00;;;;;;;13.90;3.97;;;6.50;99.90;;;;;;4992938;28;20046;-75
2024/01/12 10:36:30;;;;;;;19.98;4.88;;;6.50;99.90;;;;;;4994411;28;20026;-78
2024/01/12 10:39:00;;;;;;;16.48;4.53;;;6.50;99.90;;;;;;4994737;28;20038;-75
2024/01/12 10:41:26;;;;;;;14.80;4.28;;;6.50;99.90;;;;;;4993878;28;20084;-76
2024/01/12 10:43:54;;;;;;;16.75;3.83;;;6.40;99.90;;;;;;4994195;28;20117;-76
2024/01/12 10:46:45;;;;;;;14.70;4.05;;;6.40;99.90;;;;;;4993562;28;20041;-76
2024/01/12 10:49:16;;;;;;;16.83;5.15;;;6.40;99.90;;;;;;4993816;28;20085;-76
2024/01/12 10:51:53;;;;;;;11.07;4.70;;;6.40;99.90;;;;;;4993892;28;20034;-76
2024/01/12 10:54:33;;;;;;;22.00;5.20;;;6.40;99.90;;;;;;4993916;28;20101;-76
2024/01/12 10:56:59;;;;;;;14.63;4.28;;;6.40;99.90;;;;;;4994595;28;20089;-76
2024/01/12 10:59:27;;;;;;;13.75;4.13;;;6.40;99.90;;;;;;4997843;28;20099;-75
2024/01/12 11:01:54;;;;;;;15.02;4.32;;;6.40;99.90;;;;;;4997245;28;20041;-76
2024/01/12 11:04:21;;;;;;;22.30;4.80;;;6.50;99.90;;;;;;4997482;28;20089;-76
2024/01/12 11:06:55;;;;;;;14.52;4.00;;;6.60;99.90;;;;;;4997196;28;20388;-75
2024/01/12 11:09:22;;;;;;;15.52;3.75;;;6.60;99.90;;;;;;4997887;28;20033;-76
2024/01/12 11:11:55;;;;;;;13.43;4.40;;;6.70;99.90;;;;;;4996807;28;20042;-75
2024/01/12 11:14:21;;;;;;;11.70;4.25;;;6.70;99.90;;;;;;4996664;28;20038;-76
2024/01/12 11:16:47;;;;;;;10.93;4.03;;;6.80;99.90;;;;;;4995512;28;20424;-76
2024/01/12 11:19:15;;;;;;;15.57;5.40;;;6.80;99.90;;;;;;4995484;28;20081;-76
2024/01/12 11:21:42;;;;;;;12.70;5.15;;;6.90;99.90;;;;;;4997075;28;20034;-76
2024/01/12 11:24:11;;;;;;;17.67;5.68;;;6.90;99.90;;;;;;4997273;28;20388;-76
2024/01/12 11:26:38;;;;;;;23.27;7.40;;;6.80;99.90;;;;;;4997243;28;20076;-75
2024/01/12 11:29:04;;;;;;;16.10;7.25;;;6.70;99.90;;;;;;4996203;28;20030;-75
2024/01/12 11:31:29;;;;;;;14.60;6.40;;;6.70;99.90;;;;;;4995639;28;20105;-76
2024/01/12 11:34:02;;;;;;;18.67;6.25;;;6.70;99.90;;;;;;4997132;28;20045;-77
2024/01/12 11:36:30;;;;;;;18.83;6.35;;;6.70;99.90;;;;;;4996628;28;20413;-76
2024/01/12 11:38:59;;;;;;;19.75;6.40;;;6.80;99.90;;;;;;4996980;28;20034;-76
2024/01/12 11:41:29;;;;;;;16.55;5.75;;;6.80;99.90;;;;;;4996806;28;20085;-76
2024/01/12 11:43:56;;;;;;;17.75;6.47;;;6.80;99.90;;;;;;4995302;28;20067;-75
2024/01/12 11:46:23;;;;;;;20.02;5.88;;;6.80;99.90;;;;;;4996597;28;20033;-76
2024/01/12 11:48:50;;;;;;;23.38;6.00;;;6.90;99.90;;;;;;4997016;28;20034;-76
2024/01/12 11:51:24;;;;;;;17.23;5.90;;;6.90;99.90;;;;;;4997300;28;20465;-75
2024/01/12 11:53:51;;;;;;;14.70;5.13;;;6.90;99.90;;;;;;4996905;28;20030;-74
2024/01/12 11:56:17;;;;;;;18.52;5.65;;;6.90;99.90;;;;;;4996036;28;20385;-74
2024/01/12 11:58:43;;;;;;;18.52;5.53;;;7.00;99.90;;;;;;4995251;28;20092;-72
2024/01/12 12:01:09;;;;;;;16.48;5.78;;;7.00;99.90;;;;;;4996072;28;20093;-71
2024/01/12 12:03:34;;;;;;;18.35;5.32;;;7.00;99.90;;;;;;4995797;28;20069;-71
2024/01/12 12:06:00;;;;;;;15.82;4.68;;;7.00;99.90;;;;;;4995356;28;20042;-72
2024/01/12 12:08:27;;;;;;;15.27;4.35;;;7.00;99.90;;;;;;4994331;28;20062;-72
2024/01/12 12:10:53;;;;;;;13.80;4.18;;;7.00;99.90;;;;;;4994203;28;20026;-72
2024/01/12 12:13:19;;;;;;;15.55;4.45;;;6.90;99.90;;;;;;4995391;28;20085;-71
2024/01/12 12:15:45;;;;;;;13.20;5.25;;;6.90;99.90;;;;;;4994936;28;20038;-72
2024/01/12 12:18:12;;;;;;;15.95;4.50;;;6.80;99.90;;;;;;4995164;28;20030;-72
2024/01/12 12:20:37;;;;;;;15.70;4.65;;;6.80;99.90;;;;;;4995343;28;20042;-72
2024/01/12 12:23:04;;;;;;;14.57;4.15;;;6.80;99.90;;;;;;4995177;28;20061;-72
2024/01/12 12:25:29;;;;;;;18.75;4.28;;;6.90;99.90;;;;;;4995919;28;20030;-71
2024/01/12 12:27:56;;;;;;;20.98;4.68;;;6.80;99.90;;;;;;4995591;28;20030;-72
2024/01/12 12:30:22;;;;;;;16.50;4.68;;;6.80;99.90;;;;;;4995289;28;20053;-71
2024/01/12 12:32:48;;;;;;;14.60;4.22;;;6.80;99.90;;;;;;4978180;28;20043;-72
2024/01/12 12:35:18;;;;;;;16.48;3.95;;;6.80;99.90;;;;;;4995024;28;20045;-73
2024/01/12 12:37:46;;;;;;;17.63;5.00;;;6.80;99.90;;;;;;5005164;28;20041;-73
2024/01/12 12:40:13;;;;;;;15.55;4.80;;;6.80;99.90;;;;;;4995072;28;20034;-73